Time;durP1;ratioP1;P1;durP2;ratioP2;P2;SDS_P1;SDS_P2;PMS_P1;PMS_P2;Temp;Humidity;BMP_temperature;BMP_pressure;BME280_temperature;BME280_humidity;BME280_pressure;Samples;Min_cycle;Max_cycle;Signal;HPM_P1;HPM_P2
2022/09/24 00:01:37;;;;;;;2.10;1.13;;;20.10;50.00;;;;;;4821025;29;20049;-48
2022/09/24 00:04:06;;;;;;;1.13;0.93;;;20.00;49.50;;;;;;4820981;29;20076;-48
2022/09/24 00:06:36;;;;;;;2.50;0.50;;;20.00;49.60;;;;;;4820804;29;20051;-49
2022/09/24 00:09:04;;;;;;;2.47;1.10;;;20.00;49.80;;;;;;4820723;29;20051;-48
2022/09/24 00:11:33;;;;;;;2.75;2.45;;;20.00;49.90;;;;;;4820635;29;20034;-48
2022/09/24 00:14:00;;;;;;;3.47;0.90;;;19.90;50.00;;;;;;4820827;29;20046;-50
2022/09/24 00:16:30;;;;;;;3.20;1.27;;;19.90;50.10;;;;;;4820865;29;20047;-49
2022/09/24 00:18:58;;;;;;;2.92;1.00;;;19.90;50.20;;;;;;4820641;29;20051;-50
2022/09/24 00:21:28;;;;;;;1.15;0.90;;;19.90;50.40;;;;;;4834062;29;20049;-49
2022/09/24 00:23:57;;;;;;;1.67;1.10;;;19.90;51.20;;;;;;4820613;29;20472;-52
2022/09/24 00:29:15;;;;;;;0.85;0.77;;;19.80;50.70;;;;;;4820585;29;20070;-47
2022/09/24 00:31:42;;;;;;;3.30;1.13;;;19.80;50.90;;;;;;4820610;29;20043;-47
2022/09/24 00:34:09;;;;;;;4.13;1.15;;;19.80;50.90;;;;;;4824888;29;20546;-46
2022/09/24 00:36:37;;;;;;;4.63;1.95;;;19.70;51.00;;;;;;4819188;29;20089;-47
2022/09/24 00:39:05;;;;;;;10.65;2.58;;;19.70;51.10;;;;;;4833480;29;20130;-46
2022/09/24 00:41:36;;;;;;;1.60;1.23;;;19.70;51.30;;;;;;4820380;29;20601;-47
2022/09/24 00:44:52;;;;;;;3.05;1.75;;;19.70;51.40;;;;;;4820828;29;20121;-48
2022/09/24 00:47:34;;;;;;;1.17;1.08;;;19.70;51.40;;;;;;4815980;29;20053;-48
2022/09/24 00:50:20;;;;;;;2.53;0.82;;;19.60;51.50;;;;;;4820340;29;20046;-48
2022/09/24 00:52:51;;;;;;;2.47;1.80;;;19.60;51.70;;;;;;4819695;29;20058;-48
2022/09/24 00:55:20;;;;;;;2.60;1.42;;;19.60;51.80;;;;;;4801817;29;20102;-49
2022/09/24 00:57:48;;;;;;;2.30;1.92;;;19.60;51.90;;;;;;4820547;29;20146;-49
2022/09/24 01:00:18;;;;;;;1.90;1.13;;;19.50;51.90;;;;;;4814355;29;20054;-49
2022/09/24 01:02:48;;;;;;;1.85;1.70;;;19.50;52.10;;;;;;4814466;29;20057;-49
2022/09/24 01:05:16;;;;;;;3.30;1.38;;;19.50;52.20;;;;;;4816016;29;20129;-53
2022/09/24 01:07:46;;;;;;;1.02;0.63;;;19.50;52.20;;;;;;4820027;29;20074;-49
2022/09/24 01:10:46;;;;;;;2.35;1.42;;;19.50;52.30;;;;;;4814713;29;20046;-48
2022/09/24 01:13:08;;;;;;;2.25;1.30;;;19.50;52.30;;;;;;4820044;29;20046;-48
2022/09/24 01:15:42;;;;;;;2.67;1.20;;;19.50;52.40;;;;;;4820249;29;20103;-48
2022/09/24 01:18:16;;;;;;;3.88;1.52;;;19.50;52.60;;;;;;4819927;29;20049;-49
2022/09/24 01:20:55;;;;;;;2.83;1.30;;;19.50;52.80;;;;;;4814047;29;20585;-48
2022/09/24 01:24:01;;;;;;;5.32;2.17;;;19.40;53.10;;;;;;4819991;29;20066;-47
2022/09/24 01:26:39;;;;;;;2.63;2.10;;;19.40;53.50;;;;;;4781382;30;20546;-49
2022/09/24 01:29:31;;;;;;;2.53;1.40;;;19.40;54.20;;;;;;4781082;29;20059;-48
2022/09/24 01:32:04;;;;;;;2.28;1.20;;;19.40;54.50;;;;;;4778659;29;20059;-47
2022/09/24 01:34:37;;;;;;;2.85;1.25;;;19.30;54.70;;;;;;4786374;29;20080;-49
2022/09/24 01:37:05;;;;;;;2.25;1.85;;;19.30;55.00;;;;;;4783193;29;20605;-49
2022/09/24 01:39:34;;;;;;;2.15;1.70;;;19.30;55.20;;;;;;4784680;29;20061;-50
2022/09/24 01:42:01;;;;;;;3.30;1.67;;;19.20;55.20;;;;;;4785040;30;20127;-50
2022/09/24 01:44:31;;;;;;;1.00;1.00;;;19.20;56.20;;;;;;4784953;29;20142;-50
2022/09/24 01:46:58;;;;;;;1.38;1.05;;;19.20;55.90;;;;;;4785008;30;20087;-51
2022/09/24 01:49:26;;;;;;;1.77;1.42;;;19.10;56.20;;;;;;4785241;30;20081;-49
2022/09/24 01:52:00;;;;;;;4.05;1.10;;;19.10;56.40;;;;;;4769751;30;20059;-53
2022/09/24 01:54:32;;;;;;;1.52;1.35;;;19.10;56.80;;;;;;4786692;30;20064;-52
2022/09/24 01:57:05;;;;;;;1.48;1.10;;;19.00;56.80;;;;;;4786289;30;20085;-53
2022/09/24 01:59:39;;;;;;;2.28;1.10;;;19.00;56.90;;;;;;4789022;29;20059;-49
2022/09/24 02:02:13;;;;;;;2.72;1.23;;;19.00;57.20;;;;;;4811725;29;20130;-49
2022/09/24 02:04:44;;;;;;;4.55;1.33;;;18.90;57.30;;;;;;4822983;29;20802;-48
2022/09/24 02:07:15;;;;;;;2.47;1.48;;;18.90;57.80;;;;;;4823257;29;20085;-48
2022/09/24 02:09:44;;;;;;;3.08;1.38;;;18.90;58.00;;;;;;4822944;29;20076;-48
2022/09/24 02:12:15;;;;;;;3.20;1.70;;;18.80;57.90;;;;;;4822995;29;20047;-49
2022/09/24 02:14:48;;;;;;;8.98;1.40;;;18.80;58.20;;;;;;4822939;29;20085;-49
2022/09/24 02:17:15;;;;;;;2.15;1.23;;;18.70;58.40;;;;;;4823063;29;20516;-50
2022/09/24 02:19:42;;;;;;;2.72;0.68;;;18.70;58.20;;;;;;4822818;29;20060;-49
2022/09/24 02:22:12;;;;;;;1.77;0.90;;;18.70;58.50;;;;;;4822935;29;20046;-50
2022/09/24 02:24:45;;;;;;;2.22;1.45;;;18.70;58.70;;;;;;4822658;29;20050;-52
2022/09/24 02:27:12;;;;;;;3.38;1.23;;;18.70;59.20;;;;;;4822918;29;20078;-47
2022/09/24 02:29:40;;;;;;;1.63;1.25;;;18.60;59.40;;;;;;4822756;29;20045;-52
2022/09/24 02:32:12;;;;;;;2.13;1.63;;;18.60;59.30;;;;;;4822717;29;20425;-52
2022/09/24 02:34:45;;;;;;;3.63;1.55;;;18.60;59.50;;;;;;4828543;29;20571;-50
2022/09/24 02:37:14;;;;;;;4.07;1.50;;;18.50;59.60;;;;;;4822527;29;20130;-49
2022/09/24 02:39:41;;;;;;;2.50;1.90;;;18.50;60.00;;;;;;4822439;29;20057;-48
2022/09/24 02:42:11;;;;;;;2.15;1.10;;;18.50;60.10;;;;;;4822395;29;20137;-47
2022/09/24 02:44:38;;;;;;;2.13;0.95;;;18.50;60.00;;;;;;4816685;29;20058;-48
2022/09/24 02:47:06;;;;;;;2.50;1.00;;;18.50;59.90;;;;;;4821190;29;20427;-48
2022/09/24 02:49:35;;;;;;;1.42;0.95;;;18.40;59.50;;;;;;4818825;29;20079;-47
2022/09/24 02:52:03;;;;;;;2.47;1.35;;;18.40;59.50;;;;;;4818060;29;20499;-47
2022/09/24 02:54:31;;;;;;;2.33;1.00;;;18.30;59.40;;;;;;4816786;29;20478;-47
2022/09/24 02:56:58;;;;;;;0.93;0.52;;;18.30;59.20;;;;;;4816981;29;20195;-50
2022/09/24 02:59:25;;;;;;;1.63;1.17;;;18.30;59.20;;;;;;4817810;29;20035;-47
2022/09/24 03:01:52;;;;;;;2.25;1.95;;;18.30;59.30;;;;;;4816695;29;20050;-48
2022/09/24 03:04:19;;;;;;;0.88;0.82;;;18.30;59.40;;;;;;4812501;29;20512;-48
2022/09/24 03:06:47;;;;;;;6.22;1.50;;;18.20;59.70;;;;;;4819918;29;20496;-49
2022/09/24 03:09:14;;;;;;;1.83;1.73;;;18.20;60.00;;;;;;4822085;29;20170;-50
2022/09/24 03:11:41;;;;;;;2.25;0.50;;;18.20;60.70;;;;;;4823112;29;20043;-48
2022/09/24 03:14:09;;;;;;;1.88;0.68;;;18.30;60.20;;;;;;4822092;29;20126;-51
2022/09/24 03:16:36;;;;;;;2.28;1.02;;;18.40;60.10;;;;;;4821323;29;20046;-48
